createdAt,value
2019-05-03T00:02:03.972Z,72.58
2019-05-03T00:04:33.747Z,72.01
2019-05-03T00:07:03.631Z,72.15
2019-05-03T00:09:33.267Z,72.43
2019-05-03T00:12:02.907Z,72.28
2019-05-03T00:14:32.813Z,71.77
2019-05-03T00:17:02.540Z,71.77
2019-05-03T00:19:32.746Z,71.94
2019-05-03T00:22:02.763Z,72.40
2019-05-03T00:24:32.501Z,72.54
2019-05-03T00:27:02.133Z,72.14
2019-05-03T00:29:32.502Z,72.27
2019-05-03T00:32:02.383Z,72.08
2019-05-03T00:34:41.804Z,72.07
2019-05-03T00:37:22.179Z,72.05
2019-05-03T00:39:57.736Z,71.60
2019-05-03T00:42:27.364Z,72.21
2019-05-03T00:44:56.992Z,72.03
2019-05-03T00:47:26.742Z,72.59
2019-05-03T00:49:56.381Z,72.25
2019-05-03T00:52:26.051Z,71.40
2019-05-03T00:54:55.682Z,71.05
2019-05-03T00:57:26.122Z,71.45
2019-05-03T00:59:55.768Z,71.62
2019-05-03T01:02:26.338Z,71.31
2019-05-03T01:04:56.051Z,71.35
2019-05-03T01:07:25.731Z,71.47
2019-05-03T01:09:55.364Z,71.70
2019-05-03T01:12:25.007Z,71.58
2019-05-03T01:14:56.320Z,70.94
2019-05-03T01:17:25.952Z,71.24
2019-05-03T01:19:55.617Z,71.13
2019-05-03T01:22:25.326Z,71.25
2019-05-03T01:24:54.987Z,71.00
2019-05-03T01:27:24.764Z,71.16
2019-05-03T01:29:54.432Z,70.53
2019-05-03T01:32:24.064Z,71.09
2019-05-03T01:34:53.706Z,71.01
2019-05-03T01:37:23.371Z,70.68
2019-05-03T01:39:53.082Z,70.93
2019-05-03T01:42:22.815Z,71.09
2019-05-03T01:44:52.457Z,70.82
2019-05-03T01:47:23.745Z,70.89
2019-05-03T01:49:55.023Z,70.47
2019-05-03T01:52:26.325Z,70.51
2019-05-03T01:54:56.009Z,71.63
2019-05-03T01:57:25.683Z,71.22
2019-05-03T01:59:55.380Z,71.33
2019-05-03T02:02:42.044Z,71.01
2019-05-03T02:05:14.756Z,71.16
2019-05-03T02:07:44.877Z,71.96
2019-05-03T02:10:14.645Z,72.24
2019-05-03T02:12:44.277Z,71.97
2019-05-03T02:15:14.065Z,71.44
2019-05-03T02:17:43.686Z,71.35
2019-05-03T02:20:13.485Z,71.26
2019-05-03T02:22:43.112Z,71.13
2019-05-03T02:25:13.271Z,70.94
2019-05-03T02:27:42.905Z,71.10
2019-05-03T02:30:14.408Z,70.95
2019-05-03T02:32:44.414Z,71.08
2019-05-03T02:35:14.395Z,71.23
2019-05-03T02:37:46.054Z,71.32
2019-05-03T02:40:20.389Z,71.21
2019-05-03T02:43:06.261Z,70.98
2019-05-03T02:45:38.172Z,70.72
2019-05-03T02:48:25.762Z,70.92
2019-05-03T02:50:56.196Z,71.36
2019-05-03T02:53:26.968Z,71.36
2019-05-03T02:56:13.048Z,71.20
2019-05-03T02:58:27.972Z,71.72
2019-05-03T03:01:01.780Z,71.40
2019-05-03T03:03:36.075Z,71.61
2019-05-03T03:06:07.004Z,71.75
2019-05-03T03:08:38.987Z,71.96
2019-05-03T03:11:11.548Z,71.63
2019-05-03T03:13:45.754Z,71.67
2019-05-03T03:16:17.346Z,71.40
2019-05-03T03:18:47.212Z,71.22
2019-05-03T03:21:18.564Z,70.77
2019-05-03T03:24:07.313Z,70.19
2019-05-03T03:26:43.148Z,70.48
2019-05-03T03:29:16.093Z,70.44
2019-05-03T03:32:10.351Z,70.69
2019-05-03T03:35:00.587Z,70.72
2019-05-03T03:37:22.064Z,70.96
2019-05-03T03:39:52.806Z,71.36
2019-05-03T03:42:25.179Z,71.24
2019-05-03T03:44:57.087Z,71.46
2019-05-03T03:47:29.957Z,71.58
2019-05-03T03:50:02.137Z,71.41
2019-05-03T03:52:36.083Z,71.43
2019-05-03T03:55:07.060Z,71.86
2019-05-03T03:57:37.108Z,71.86
2019-05-03T04:00:08.929Z,71.56
2019-05-03T04:02:40.228Z,71.45
2019-05-03T04:05:10.897Z,70.82
2019-05-03T04:07:40.748Z,70.57
2019-05-03T04:10:11.890Z,70.59
2019-05-03T04:12:45.417Z,70.39
2019-05-03T04:15:29.078Z,70.75
2019-05-03T04:18:10.391Z,70.59
2019-05-03T04:20:40.164Z,70.31
2019-05-03T04:23:09.890Z,70.21
2019-05-03T04:25:40.287Z,70.00
2019-05-03T04:28:10.365Z,69.99
2019-05-03T04:30:40.071Z,70.30
2019-05-03T04:33:09.711Z,70.53
2019-05-03T04:35:39.362Z,70.41
2019-05-03T04:38:08.999Z,70.35
2019-05-03T04:40:38.722Z,70.41
2019-05-03T04:43:08.344Z,70.37
2019-05-03T04:45:37.999Z,70.33
2019-05-03T04:48:07.798Z,70.49
2019-05-03T04:50:37.459Z,70.44
2019-05-03T04:53:07.177Z,69.86
2019-05-03T04:55:36.826Z,70.37
2019-05-03T04:58:06.442Z,70.62
2019-05-03T05:00:36.283Z,70.46
2019-05-03T05:03:06.225Z,70.75
2019-05-03T05:05:36.519Z,71.13
2019-05-03T05:08:06.459Z,71.04
2019-05-03T05:10:36.489Z,71.07
2019-05-03T05:13:06.346Z,71.36
2019-05-03T05:15:36.044Z,71.36
2019-05-03T05:18:16.050Z,71.32
2019-05-03T05:20:56.696Z,72.60
2019-05-03T05:23:26.391Z,72.42
2019-05-03T05:26:05.528Z,71.70
2019-05-03T05:28:45.807Z,71.33
2019-05-03T05:31:15.544Z,71.35
2019-05-03T05:33:45.245Z,71.14
2019-05-03T05:36:15.348Z,71.12
2019-05-03T05:38:45.208Z,71.29
2019-05-03T05:41:15.619Z,71.18
2019-05-03T05:43:45.556Z,71.91
2019-05-03T05:46:15.556Z,71.74
2019-05-03T05:48:46.861Z,70.40
2019-05-03T05:51:16.499Z,70.03
2019-05-03T05:53:46.165Z,70.39
2019-05-03T05:56:35.343Z,70.37
2019-05-03T05:59:12.312Z,69.97
2019-05-03T06:01:45.490Z,70.30
2019-05-03T06:04:15.919Z,70.57
2019-05-03T06:07:04.628Z,71.04
2019-05-03T06:09:36.089Z,70.56
2019-05-03T06:12:07.421Z,70.51
2019-05-03T06:14:38.701Z,69.97
2019-05-03T06:17:18.845Z,69.56
2019-05-03T06:19:56.359Z,70.17
2019-05-03T06:22:27.615Z,69.52
2019-05-03T06:25:06.390Z,69.79
2019-05-03T06:27:37.665Z,69.89
2019-05-03T06:30:24.844Z,69.28
2019-05-03T06:32:55.118Z,69.65
2019-05-03T06:35:24.894Z,70.06
2019-05-03T06:37:54.656Z,70.25
2019-05-03T06:40:25.261Z,70.96
2019-05-03T06:43:08.656Z,72.22
2019-05-03T06:45:27.225Z,72.86
2019-05-03T06:47:56.883Z,72.13
2019-05-03T06:52:59.836Z,72.92
2019-05-03T06:55:28.238Z,72.88
2019-05-03T06:57:57.866Z,73.42
2019-05-03T07:00:35.172Z,72.75
2019-05-03T07:03:09.249Z,72.01
2019-05-03T07:05:47.516Z,72.58
2019-05-03T07:08:34.914Z,72.96
2019-05-03T07:11:06.493Z,73.31
2019-05-03T07:13:36.122Z,73.06
2019-05-03T07:16:06.091Z,72.79
2019-05-03T07:18:35.715Z,72.41
2019-05-03T07:21:05.467Z,73.16
2019-05-03T07:23:35.186Z,72.70
2019-05-03T07:26:05.333Z,72.62
2019-05-03T07:28:46.314Z,72.00
2019-05-03T07:31:06.773Z,71.68
2019-05-03T07:33:36.760Z,71.92
2019-05-03T07:36:06.923Z,71.65
2019-05-03T07:38:36.718Z,71.98
2019-05-03T07:41:06.489Z,71.69
2019-05-03T07:43:36.282Z,71.33
2019-05-03T07:46:06.353Z,71.90
2019-05-03T07:48:36.856Z,72.30
2019-05-03T07:51:06.497Z,71.66
2019-05-03T07:53:36.120Z,71.62
2019-05-03T07:56:10.379Z,71.79
2019-05-03T07:58:46.216Z,71.16
2019-05-03T08:01:16.012Z,69.41
2019-05-03T08:03:46.341Z,69.69
2019-05-03T08:06:15.992Z,69.11
2019-05-03T08:08:45.617Z,69.48
2019-05-03T08:11:15.267Z,69.82
2019-05-03T08:13:44.976Z,69.86
2019-05-03T08:16:16.056Z,70.08
2019-05-03T08:18:45.925Z,69.58
2019-05-03T08:21:15.593Z,69.75
2019-05-03T08:23:45.453Z,69.90
2019-05-03T08:26:15.409Z,70.44
2019-05-03T08:28:45.251Z,70.31
2019-05-03T08:31:31.723Z,70.75
2019-05-03T08:34:01.141Z,70.83
2019-05-03T08:36:32.479Z,70.50
2019-05-03T08:39:02.154Z,70.68
2019-05-03T08:41:35.070Z,69.57
2019-05-03T08:44:05.249Z,69.34
2019-05-03T08:46:35.568Z,69.38
2019-05-03T08:49:05.370Z,69.18
2019-05-03T08:51:35.288Z,68.87
2019-05-03T08:54:04.965Z,69.65
2019-05-03T08:56:35.892Z,69.69
2019-05-03T08:59:05.544Z,68.76
2019-05-03T09:01:37.833Z,66.94
2019-05-03T09:04:06.730Z,66.08
2019-05-03T09:06:36.444Z,67.83
2019-05-03T09:09:09.547Z,68.43
2019-05-03T09:11:39.197Z,66.73
2019-05-03T09:14:10.470Z,67.59
2019-05-03T09:16:40.123Z,67.36
2019-05-03T09:19:09.738Z,67.32
2019-05-03T09:21:39.474Z,67.02
2019-05-03T09:24:09.465Z,66.60
2019-05-03T09:26:39.161Z,67.25
2019-05-03T09:29:08.944Z,67.29
2019-05-03T09:31:39.041Z,67.06
2019-05-03T09:34:08.708Z,66.65
2019-05-03T09:36:38.330Z,65.59
2019-05-03T09:39:09.423Z,63.08
2019-05-03T09:41:39.045Z,64.89
2019-05-03T09:44:08.706Z,65.43
2019-05-03T09:46:38.324Z,65.26
2019-05-03T09:49:13.158Z,63.28
2019-05-03T09:51:39.409Z,63.75
2019-05-03T09:54:14.833Z,62.28
2019-05-03T09:57:00.147Z,61.16
2019-05-03T09:59:30.669Z,62.62
2019-05-03T10:02:01.982Z,62.70
2019-05-03T10:04:31.658Z,63.35
2019-05-03T10:07:01.321Z,63.68
2019-05-03T10:09:30.945Z,64.09
2019-05-03T10:12:01.764Z,64.64
2019-05-03T10:14:31.459Z,62.76
2019-05-03T10:17:04.954Z,62.69
2019-05-03T10:19:39.956Z,63.36
2019-05-03T10:22:06.257Z,64.47
2019-05-03T10:24:36.058Z,64.00
2019-05-03T10:27:05.904Z,63.67
2019-05-03T10:29:35.699Z,63.71
2019-05-03T10:32:10.141Z,63.70
2019-05-03T10:34:41.431Z,62.27
2019-05-03T10:37:15.073Z,62.03
2019-05-03T10:39:45.516Z,63.21
2019-05-03T10:42:15.243Z,63.38
2019-05-03T10:44:45.031Z,63.03
2019-05-03T10:47:14.805Z,62.66
2019-05-03T10:49:45.773Z,63.35
2019-05-03T10:52:16.783Z,64.32
2019-05-03T10:54:46.411Z,64.29
2019-05-03T10:57:20.524Z,64.65
2019-05-03T10:59:50.146Z,65.17
2019-05-03T11:02:25.444Z,63.52
2019-05-03T11:04:55.234Z,63.97
2019-05-03T11:07:25.716Z,63.73
2019-05-03T11:09:55.566Z,64.87
2019-05-03T11:12:25.522Z,64.51
2019-05-03T11:14:55.221Z,62.60
2019-05-03T11:17:25.610Z,62.11
2019-05-03T11:19:55.379Z,62.64
2019-05-03T11:22:25.355Z,61.38
2019-05-03T11:24:55.147Z,62.39
2019-05-03T11:27:26.428Z,60.54
2019-05-03T11:29:56.913Z,60.75
2019-05-03T11:32:35.399Z,60.83
2019-05-03T11:35:11.650Z,60.69
2019-05-03T11:37:48.675Z,60.93
2019-05-03T11:40:18.529Z,60.47
2019-05-03T11:42:48.927Z,60.96
2019-05-03T11:45:19.683Z,60.82
2019-05-03T11:47:49.309Z,60.44
2019-05-03T11:50:19.190Z,61.02
2019-05-03T11:52:48.888Z,59.73
2019-05-03T11:55:18.590Z,58.11
2019-05-03T11:57:48.294Z,59.07
2019-05-03T12:00:25.283Z,58.85
2019-05-03T12:02:56.613Z,58.27
2019-05-03T12:05:27.876Z,58.60
2019-05-03T12:07:57.529Z,58.95
2019-05-03T12:10:50.230Z,56.71
2019-05-03T12:13:06.003Z,56.45
2019-05-03T12:15:35.696Z,56.37
2019-05-03T12:18:08.014Z,54.43
2019-05-03T12:20:39.524Z,53.50
2019-05-03T12:23:10.364Z,53.03
2019-05-03T12:25:41.017Z,53.60
2019-05-03T12:28:11.269Z,54.41
2019-05-03T12:30:41.387Z,55.70
2019-05-03T12:33:11.197Z,55.05
2019-05-03T12:35:40.837Z,55.58
2019-05-03T12:38:10.458Z,54.63
2019-05-03T12:40:40.109Z,55.51
2019-05-03T12:43:09.874Z,55.57
2019-05-03T12:45:39.540Z,55.57
2019-05-03T12:48:09.173Z,54.19
2019-05-03T12:50:39.061Z,53.35
2019-05-03T12:53:09.039Z,53.98
2019-05-03T12:55:38.663Z,54.22
2019-05-03T12:58:08.375Z,53.18
2019-05-03T13:00:42.043Z,53.36
2019-05-03T13:03:15.251Z,51.78
2019-05-03T13:05:45.059Z,51.15
2019-05-03T13:08:40.520Z,51.21
2019-05-03T13:11:10.359Z,51.53
2019-05-03T13:13:40.010Z,51.90
2019-05-03T13:16:11.508Z,52.10
2019-05-03T13:18:41.184Z,51.91
2019-05-03T13:21:10.926Z,50.83
2019-05-03T13:23:40.554Z,51.51
2019-05-03T13:26:10.196Z,51.55
2019-05-03T13:28:39.821Z,52.20
2019-05-03T13:31:09.541Z,49.32
2019-05-03T13:33:39.228Z,48.98
2019-05-03T13:36:08.902Z,48.73
2019-05-03T13:38:38.535Z,49.41
2019-05-03T13:41:08.182Z,49.80
2019-05-03T13:43:37.870Z,50.60
2019-05-03T13:46:07.976Z,50.55
2019-05-03T13:48:45.589Z,50.28
2019-05-03T13:51:08.959Z,51.54
2019-05-03T13:53:38.592Z,52.40
2019-05-03T13:56:08.296Z,49.94
2019-05-03T13:58:37.935Z,50.66
2019-05-03T14:01:07.769Z,50.18
2019-05-03T14:03:37.417Z,51.31
2019-05-03T14:06:09.346Z,51.66
2019-05-03T14:08:38.473Z,51.70
2019-05-03T14:11:08.094Z,51.16
2019-05-03T14:13:37.757Z,51.13
2019-05-03T14:16:07.462Z,50.96
2019-05-03T14:18:37.172Z,51.32
2019-05-03T14:21:24.598Z,53.85
2019-05-03T14:24:07.917Z,53.49
2019-05-03T14:26:37.987Z,54.33
2019-05-03T14:29:08.043Z,54.14
2019-05-03T14:31:37.674Z,53.67
2019-05-03T14:34:07.323Z,53.12
2019-05-03T14:36:37.008Z,53.77
2019-05-03T14:39:10.349Z,54.26
2019-05-03T14:41:40.222Z,53.35
2019-05-03T14:44:09.910Z,54.67
2019-05-03T14:46:39.931Z,55.05
2019-05-03T14:49:09.621Z,55.95
2019-05-03T14:51:39.269Z,55.11
2019-05-03T14:54:10.175Z,53.94
2019-05-03T14:56:45.539Z,50.60
2019-05-03T14:59:34.648Z,51.11
2019-05-03T15:02:24.562Z,51.84
2019-05-03T15:04:54.879Z,54.07
2019-05-03T15:07:25.558Z,55.80
2019-05-03T15:09:55.464Z,53.40
2019-05-03T15:12:25.359Z,53.94
2019-05-03T15:14:54.979Z,53.76
2019-05-03T15:17:24.766Z,55.48
2019-05-03T15:19:54.827Z,57.28
2019-05-03T15:22:25.377Z,57.21
2019-05-03T15:24:55.175Z,59.00
2019-05-03T15:27:25.006Z,56.62
2019-05-03T15:29:55.502Z,57.92
2019-05-03T15:32:25.347Z,57.63
2019-05-03T15:34:55.409Z,58.76
2019-05-03T15:37:25.647Z,59.16
2019-05-03T15:39:55.507Z,59.59
2019-05-03T15:42:26.703Z,58.38
2019-05-03T15:44:57.960Z,58.83
2019-05-03T15:47:29.258Z,60.16
2019-05-03T15:49:58.878Z,61.02
2019-05-03T15:52:28.529Z,62.13
2019-05-03T15:54:58.225Z,62.33
2019-05-03T15:57:27.870Z,63.57
2019-05-03T15:59:57.494Z,64.05
2019-05-03T16:02:27.221Z,64.45
2019-05-03T16:04:58.744Z,64.52
2019-05-03T16:07:28.214Z,64.52
2019-05-03T16:09:57.835Z,64.42
2019-05-03T16:12:27.505Z,64.22
2019-05-03T16:14:57.131Z,64.22
2019-05-03T16:17:26.751Z,64.63
2019-05-03T16:19:56.404Z,65.33
2019-05-03T16:22:26.194Z,65.30
2019-05-03T16:24:55.851Z,65.11
2019-05-03T16:27:25.247Z,65.76
2019-05-03T16:29:54.987Z,67.32
2019-05-03T16:32:24.600Z,66.51
2019-05-03T16:34:55.024Z,67.17
2019-05-03T16:37:25.508Z,67.02
2019-05-03T16:39:57.730Z,66.68
2019-05-03T16:42:26.656Z,66.60
2019-05-03T16:44:56.306Z,66.82
2019-05-03T16:47:25.944Z,67.44
2019-05-03T16:49:55.573Z,68.51
2019-05-03T16:52:25.654Z,68.75
2019-05-03T16:54:55.440Z,68.94
2019-05-03T16:57:25.097Z,68.60
2019-05-03T16:59:55.082Z,69.29
2019-05-03T17:02:24.854Z,68.92
2019-05-03T17:04:56.124Z,69.19
2019-05-03T17:07:30.162Z,68.77
2019-05-03T17:10:07.475Z,68.61
2019-05-03T17:12:38.480Z,68.66
2019-05-03T17:15:10.483Z,68.91
2019-05-03T17:17:40.105Z,69.20
2019-05-03T17:20:10.566Z,68.38
2019-05-03T17:22:40.185Z,67.36
2019-05-03T17:25:09.916Z,63.82
2019-05-03T17:27:39.538Z,64.83
2019-05-03T17:30:09.690Z,63.73
2019-05-03T17:32:39.400Z,65.26
2019-05-03T17:35:09.180Z,65.62
2019-05-03T17:37:38.797Z,64.07
2019-05-03T17:40:25.875Z,64.82
2019-05-03T17:43:12.138Z,64.73
2019-05-03T17:45:46.079Z,65.65
2019-05-03T17:48:15.701Z,65.53
2019-05-03T17:50:45.527Z,65.31
2019-05-03T17:53:34.554Z,64.61
2019-05-03T17:56:12.203Z,64.60
2019-05-03T17:58:41.591Z,64.55
2019-05-03T18:01:28.057Z,64.71
2019-05-03T18:04:06.603Z,64.92
2019-05-03T18:06:41.207Z,65.74
2019-05-03T18:09:15.247Z,66.33
2019-05-03T18:11:46.517Z,66.64
2019-05-03T18:14:16.170Z,66.22
2019-05-03T18:16:45.802Z,65.61
2019-05-03T18:19:15.456Z,65.58
2019-05-03T18:21:45.067Z,65.71
2019-05-03T18:24:15.391Z,65.92
2019-05-03T18:26:45.112Z,66.28
2019-05-03T18:29:14.795Z,65.96
2019-05-03T18:31:44.656Z,66.42
2019-05-03T18:34:21.526Z,66.98
2019-05-03T18:36:45.689Z,65.43
2019-05-03T18:39:15.386Z,65.46
2019-05-03T18:41:45.279Z,64.85
2019-05-03T18:44:16.667Z,65.14
2019-05-03T18:46:50.767Z,65.31
2019-05-03T18:49:20.400Z,65.86
2019-05-03T18:51:50.042Z,66.31
2019-05-03T18:54:19.660Z,65.91
2019-05-03T18:56:49.371Z,65.91
2019-05-03T18:59:19.003Z,66.35
2019-05-03T19:01:48.653Z,66.02
2019-05-03T19:04:31.285Z,66.46
2019-05-03T19:07:01.955Z,66.26
2019-05-03T19:09:25.062Z,65.92
2019-05-03T19:11:57.205Z,65.19
2019-05-03T19:14:28.011Z,66.49
2019-05-03T19:17:15.390Z,66.62
2019-05-03T19:19:49.809Z,66.78
2019-05-03T19:22:18.627Z,67.19
2019-05-03T19:24:48.309Z,67.59
2019-05-03T19:27:19.480Z,67.63
2019-05-03T19:29:49.163Z,67.89
2019-05-03T19:32:18.892Z,67.58
2019-05-03T19:34:51.389Z,67.04
2019-05-03T19:37:19.906Z,67.33
2019-05-03T19:39:49.538Z,67.13
2019-05-03T19:42:19.166Z,67.14
2019-05-03T19:44:48.984Z,67.38
2019-05-03T19:47:18.615Z,67.80
2019-05-03T19:49:48.237Z,67.40
2019-05-03T19:52:19.528Z,68.18
2019-05-03T19:54:49.151Z,68.02
2019-05-03T19:57:20.438Z,67.38
2019-05-03T19:59:56.944Z,67.30
2019-05-03T20:02:45.263Z,67.79
2019-05-03T20:05:31.590Z,68.09
2019-05-03T20:08:05.527Z,67.49
2019-05-03T20:10:35.524Z,66.98
2019-05-03T20:13:05.381Z,66.71
2019-05-03T20:15:35.004Z,66.82
2019-05-03T20:18:04.966Z,67.17
2019-05-03T20:20:36.263Z,66.89
2019-05-03T20:23:05.906Z,67.25
2019-05-03T20:25:35.531Z,67.05
2019-05-03T20:28:05.548Z,67.15
2019-05-03T20:30:35.724Z,67.26
2019-05-03T20:33:05.530Z,67.37
2019-05-03T20:35:35.749Z,67.94
2019-05-03T20:38:05.428Z,67.49
2019-05-03T20:40:35.207Z,67.88
2019-05-03T20:43:22.748Z,68.06
2019-05-03T20:45:54.761Z,68.46
2019-05-03T20:48:25.012Z,68.98
2019-05-03T20:50:55.181Z,69.04
2019-05-03T20:53:25.158Z,68.69
2019-05-03T20:55:56.526Z,67.95
2019-05-03T20:58:26.160Z,67.59
2019-05-03T21:00:55.937Z,67.04
2019-05-03T21:03:25.559Z,67.62
2019-05-03T21:05:55.391Z,66.45
2019-05-03T21:08:25.560Z,66.46
2019-05-03T21:10:55.337Z,66.78
2019-05-03T21:13:33.172Z,67.63
2019-05-03T21:16:08.066Z,67.77
2019-05-03T21:19:04.978Z,67.17
2019-05-03T21:21:38.919Z,67.23
2019-05-03T21:24:26.364Z,67.74
2019-05-03T21:26:56.357Z,68.14
2019-05-03T21:29:26.000Z,68.18
2019-05-03T21:31:55.622Z,68.20
2019-05-03T21:34:25.305Z,68.42
2019-05-03T21:36:54.966Z,68.63
2019-05-03T21:39:24.813Z,68.59
2019-05-03T21:41:55.581Z,66.97
2019-05-03T21:44:32.354Z,67.65
2019-05-03T21:47:04.719Z,68.64
2019-05-03T21:49:44.867Z,69.14
2019-05-03T21:52:14.730Z,68.97
2019-05-03T21:54:45.102Z,68.72
2019-05-03T21:57:16.579Z,68.62
2019-05-03T21:59:46.123Z,69.08
2019-05-03T22:02:15.778Z,69.17
2019-05-03T22:04:45.463Z,68.74
2019-05-03T22:07:15.110Z,68.94
2019-05-03T22:09:45.297Z,68.71
2019-05-03T22:12:15.156Z,68.92
2019-05-03T22:14:46.420Z,68.52
2019-05-03T22:17:22.952Z,69.00
2019-05-03T22:19:54.586Z,68.56
2019-05-03T22:22:45.241Z,69.08
2019-05-03T22:25:16.561Z,69.43
2019-05-03T22:27:46.229Z,69.52
2019-05-03T22:30:16.153Z,69.69
2019-05-03T22:32:45.785Z,69.34
2019-05-03T22:35:15.745Z,69.83
2019-05-03T22:37:45.437Z,69.98
2019-05-03T22:40:15.151Z,70.04
2019-05-03T22:42:44.950Z,69.93
2019-05-03T22:45:14.741Z,69.92
2019-05-03T22:47:44.636Z,69.99
2019-05-03T22:50:14.872Z,69.99
2019-05-03T22:52:45.522Z,69.78
2019-05-03T22:55:15.509Z,70.08
2019-05-03T22:57:45.127Z,69.85
2019-05-03T23:00:15.556Z,70.05
2019-05-03T23:02:45.630Z,70.21
2019-05-03T23:05:15.440Z,69.17
2019-05-03T23:07:46.933Z,66.55
2019-05-03T23:10:17.405Z,66.68
2019-05-03T23:12:47.246Z,66.84
2019-05-03T23:15:17.177Z,67.22
2019-05-03T23:17:46.831Z,67.06
2019-05-03T23:20:26.791Z,68.63
2019-05-03T23:22:56.439Z,68.91
2019-05-03T23:25:26.059Z,68.70
2019-05-03T23:27:55.768Z,69.41
2019-05-03T23:30:25.393Z,68.81
2019-05-03T23:32:55.014Z,69.83
2019-05-03T23:35:24.803Z,69.82
2019-05-03T23:37:54.505Z,69.88
2019-05-03T23:40:25.409Z,69.74
2019-05-03T23:42:55.159Z,70.14
2019-05-03T23:45:25.556Z,70.83
2019-05-03T23:47:55.307Z,70.29
2019-05-03T23:50:25.043Z,69.87
2019-05-03T23:52:54.659Z,68.93
2019-05-03T23:55:31.938Z,67.87
2019-05-03T23:58:01.552Z,68.13
